Normalwerte entsprechend der Tabelle des DWD von 1961-1990 fr den Standort Annaberg-Buchholz, 650m ASL
Wetterdaten: aktuell Sonntag, 07.08.2022 21:45
Datum Zeit Temp. A. Feuchte A. Luftdruck Regen Wind Richtung Richtung Taupunkt Windchill Windben
07.08.2022 21:45 12,7 C 74 % 1024,2 hPa 0,0 l/m 0,0 km/h (0 Bft) NO 54 8,2 C 12,7 C 0,0 km/h (0 Bft)
07.08.2022 21:30 12,9 C 73 % 1023,9 hPa 0,0 l/m 0,0 km/h (0 Bft) NO 50 8,2 C 12,9 C 0,0 km/h (0 Bft)
07.08.2022 21:15 13,9 C 69 % 1023,7 hPa 0,0 l/m 0,0 km/h (0 Bft) NO 51 8,3 C 13,9 C 0,0 km/h (0 Bft)
07.08.2022 21:00 15,6 C 62 % 1023,6 hPa 0,0 l/m 0,0 km/h (0 Bft) NO 51 8,3 C 15,6 C 0,0 km/h (0 Bft)
07.08.2022 20:45 17,4 C 56 % 1023,4 hPa 0,0 l/m 0,9 km/h (0 Bft) NO 51 8,5 C 17,4 C 6,4 km/h (2 Bft)
07.08.2022 20:30 18,7 C 49 % 1023,2 hPa 0,0 l/m 4,9 km/h (1 Bft) NO 51 7,8 C 18,7 C 12,9 km/h (3 Bft)
07.08.2022 20:15 19,3 C 48 % 1023,1 hPa 0,0 l/m 4,4 km/h (1 Bft) NO 56 8,0 C 19,3 C 16,1 km/h (3 Bft)
07.08.2022 20:00 19,7 C 46 % 1023,1 hPa 0,0 l/m 6,0 km/h (2 Bft) O-NO 71 7,8 C 19,7 C 14,5 km/h (3 Bft)
07.08.2022 19:45 20,1 C 45 % 1023,1 hPa 0,0 l/m 6,1 km/h (2 Bft) O-NO 65 7,8 C 20,1 C 12,9 km/h (3 Bft)
07.08.2022 19:30 20,4 C 44 % 1023,0 hPa 0,0 l/m 4,5 km/h (1 Bft) NO 40 7,7 C 20,4 C 9,7 km/h (2 Bft)
07.08.2022 19:15 20,9 C 44 % 1023,0 hPa 0,0 l/m 3,8 km/h (1 Bft) N-NO 30 8,2 C 20,9 C 9,7 km/h (2 Bft)
07.08.2022 19:00 20,6 C 45 % 1023,0 hPa 0,0 l/m 3,2 km/h (1 Bft) N 355 8,2 C 20,6 C 9,7 km/h (2 Bft)
07.08.2022 18:45 21,3 C 46 % 1023,0 hPa 0,0 l/m 2,3 km/h (1 Bft) N 9 9,2 C 21,3 C 9,7 km/h (2 Bft)
07.08.2022 18:30 21,3 C 45 % 1023,1 hPa 0,0 l/m 3,5 km/h (1 Bft) NW 323 8,9 C 21,3 C 12,9 km/h (3 Bft)
07.08.2022 18:15 21,1 C 43 % 1023,1 hPa 0,0 l/m 1,7 km/h (1 Bft) O-SO 107 8,0 C 21,1 C 9,7 km/h (2 Bft)
07.08.2022 18:00 21,4 C 43 % 1023,2 hPa 0,0 l/m 1,2 km/h (1 Bft) N 355 8,3 C 21,4 C 8,0 km/h (2 Bft)
07.08.2022 17:45 22,3 C 40 % 1023,4 hPa 0,0 l/m 6,2 km/h (2 Bft) O-NO 59 8,0 C 22,3 C 17,7 km/h (3 Bft)
07.08.2022 17:30 22,3 C 41 % 1023,4 hPa 0,0 l/m 4,9 km/h (1 Bft) N-NW 338 8,4 C 22,3 C 16,1 km/h (3 Bft)
07.08.2022 17:15 22,4 C 40 % 1023,4 hPa 0,0 l/m 2,5 km/h (1 Bft) W-NW 290 8,1 C 22,4 C 11,3 km/h (2 Bft)
07.08.2022 17:00 22,0 C 42 % 1023,5 hPa 0,0 l/m 3,4 km/h (1 Bft) SO 145 8,5 C 22,0 C 11,3 km/h (2 Bft)
07.08.2022 16:45 22,4 C 39 % 1023,5 hPa 0,0 l/m 6,0 km/h (2 Bft) O 97 7,8 C 22,4 C 14,5 km/h (3 Bft)
07.08.2022 16:30 22,6 C 40 % 1023,6 hPa 0,0 l/m 4,5 km/h (1 Bft) SO 142 8,3 C 22,6 C 12,9 km/h (3 Bft)
07.08.2022 16:15 22,4 C 39 % 1023,6 hPa 0,0 l/m 2,7 km/h (1 Bft) O 101 7,8 C 22,4 C 9,7 km/h (2 Bft)
07.08.2022 16:00 22,6 C 41 % 1023,7 hPa 0,0 l/m 5,6 km/h (2 Bft) N 5 8,7 C 22,6 C 16,1 km/h (3 Bft)
07.08.2022 15:45 22,2 C 40 % 1023,8 hPa 0,0 l/m 5,4 km/h (2 Bft) SO 140 8,0 C 22,2 C 16,1 km/h (3 Bft)
07.08.2022 15:30 21,6 C 42 % 1024,0 hPa 0,0 l/m 3,9 km/h (1 Bft) O 88 8,1 C 21,6 C 12,9 km/h (3 Bft)
07.08.2022 15:15 21,4 C 41 % 1024,1 hPa 0,0 l/m 6,1 km/h (2 Bft) W-NW 301 7,6 C 21,4 C 17,7 km/h (3 Bft)
07.08.2022 15:00 21,6 C 42 % 1024,2 hPa 0,0 l/m 5,5 km/h (2 Bft) NW 319 8,1 C 21,6 C 16,1 km/h (3 Bft)
07.08.2022 14:45 21,9 C 41 % 1024,4 hPa 0,0 l/m 4,9 km/h (1 Bft) O-NO 72 8,0 C 21,9 C 17,7 km/h (3 Bft)
07.08.2022 14:30 22,1 C 42 % 1024,6 hPa 0,0 l/m 5,4 km/h (2 Bft) N-NW 338 8,6 C 22,1 C 16,1 km/h (3 Bft)
07.08.2022 14:15 20,2 C 44 % 1024,8 hPa 0,0 l/m 4,5 km/h (1 Bft) O-SO 111 7,6 C 20,2 C 12,9 km/h (3 Bft)
07.08.2022 14:00 20,8 C 47 % 1024,9 hPa 0,0 l/m 6,5 km/h (2 Bft) N 355 9,1 C 20,8 C 20,9 km/h (4 Bft)
07.08.2022 13:45 19,9 C 46 % 1024,9 hPa 0,0 l/m 6,2 km/h (2 Bft) NW 316 7,9 C 19,9 C 19,3 km/h (3 Bft)
07.08.2022 13:30 21,1 C 44 % 1025,1 hPa 0,0 l/m 6,3 km/h (2 Bft) N 360 8,4 C 21,1 C 20,9 km/h (4 Bft)
07.08.2022 13:15 20,9 C 45 % 1025,2 hPa 0,0 l/m 7,0 km/h (2 Bft) NO 38 8,5 C 20,7 C 17,7 km/h (3 Bft)
07.08.2022 13:00 20,1 C 43 % 1025,4 hPa 0,0 l/m 6,1 km/h (2 Bft) O-NO 78 7,1 C 20,1 C 17,7 km/h (3 Bft)
07.08.2022 12:45 20,5 C 47 % 1025,6 hPa 0,0 l/m 6,7 km/h (2 Bft) O 96 8,8 C 20,4 C 17,7 km/h (3 Bft)
07.08.2022 12:30 20,2 C 47 % 1025,7 hPa 0,0 l/m 7,8 km/h (2 Bft) O-NO 73 8,5 C 19,6 C 17,7 km/h (3 Bft)
07.08.2022 12:15 19,2 C 51 % 1026,0 hPa 0,0 l/m 4,4 km/h (1 Bft) O 99 8,8 C 19,2 C 16,1 km/h (3 Bft)
07.08.2022 12:00 19,8 C 45 % 1026,2 hPa 0,0 l/m 4,9 km/h (1 Bft) W-SW 246 7,5 C 19,8 C 17,7 km/h (3 Bft)
07.08.2022 11:45 19,2 C 50 % 1026,3 hPa 0,0 l/m 9,5 km/h (2 Bft) N 355 8,5 C 17,9 C 17,7 km/h (3 Bft)
07.08.2022 11:30 19,5 C 49 % 1026,5 hPa 0,0 l/m 9,2 km/h (2 Bft) SO 141 8,5 C 18,4 C 20,9 km/h (4 Bft)
07.08.2022 11:15 18,8 C 51 % 1026,6 hPa 0,0 l/m 5,5 km/h (2 Bft) SO 135 8,4 C 18,8 C 16,1 km/h (3 Bft)
07.08.2022 11:00 18,2 C 52 % 1026,6 hPa 0,0 l/m 3,6 km/h (1 Bft) O-SO 117 8,2 C 18,2 C 16,1 km/h (3 Bft)
07.08.2022 10:45 18,6 C 50 % 1026,8 hPa 0,0 l/m 6,9 km/h (2 Bft) O 93 8,0 C 18,4 C 17,7 km/h (3 Bft)
07.08.2022 10:30 18,8 C 51 % 1026,8 hPa 0,0 l/m 5,6 km/h (2 Bft) S 178 8,4 C 18,8 C 19,3 km/h (3 Bft)
07.08.2022 10:15 17,9 C 52 % 1026,7 hPa 0,0 l/m 7,4 km/h (2 Bft) O-SO 108 7,9 C 17,4 C 16,1 km/h (3 Bft)
07.08.2022 10:00 18,3 C 53 % 1026,8 hPa 0,0 l/m 8,7 km/h (2 Bft) NO 55 8,6 C 17,3 C 17,7 km/h (3 Bft)
07.08.2022 09:45 18,3 C 53 % 1026,8 hPa 0,0 l/m 8,3 km/h (2 Bft) NO 48 8,6 C 17,4 C 17,7 km/h (3 Bft)
07.08.2022 09:30 17,8 C 53 % 1026,9 hPa 0,0 l/m 9,1 km/h (2 Bft) O-NO 78 8,1 C 16,6 C 19,3 km/h (3 Bft)
07.08.2022 09:15 17,4 C 56 % 1026,9 hPa 0,0 l/m 9,1 km/h (2 Bft) O-NO 74 8,5 C 16,1 C 19,3 km/h (3 Bft)
07.08.2022 09:00 17,3 C 57 % 1026,8 hPa 0,0 l/m 6,9 km/h (2 Bft) O-NO 70 8,7 C 17,1 C 20,9 km/h (4 Bft)
07.08.2022 08:45 17,2 C 58 % 1026,9 hPa 0,0 l/m 4,2 km/h (1 Bft) NO 53 8,9 C 17,2 C 12,9 km/h (3 Bft)
07.08.2022 08:35 16,4 C 60 % 1026,8 hPa 0,0 l/m 4,8 km/h (1 Bft) O-NO 67 8,6 C 16,4 C 9,7 km/h (2 Bft)
07.08.2022 08:30 16,1 C 61 % 1026,8 hPa 0,0 l/m 0,0 km/h (0 Bft) SO 135 8,6 C 16,1 C 3,2 km/h (1 Bft)
07.08.2022 08:25 16,1 C 61 % 1026,9 hPa 0,0 l/m 1,6 km/h (1 Bft) O-NO 67 8,6 C 16,1 C 4,8 km/h (1 Bft)
07.08.2022 08:20 16,1 C 61 % 1026,9 hPa 0,0 l/m 0,0 km/h (0 Bft) O-NO 67 8,6 C 16,1 C 4,8 km/h (1 Bft)
07.08.2022 08:15 15,9 C 63 % 1026,9 hPa 0,0 l/m 0,0 km/h (0 Bft) N 0 8,9 C 15,9 C 0,0 km/h (0 Bft)
07.08.2022 08:10 15,4 C 66 % 1027,0 hPa 0,0 l/m 0,0 km/h (0 Bft) N 0 9,1 C 15,4 C 0,0 km/h (0 Bft)
07.08.2022 08:05 14,8 C 70 % 1027,0 hPa 0,0 l/m 0,0 km/h (0 Bft) N 0 9,4 C 14,8 C 0,0 km/h (0 Bft)
07.08.2022 08:00 14,0 C 72 % 1027,0 hPa 0,0 l/m 0,0 km/h (0 Bft) N 0 9,0 C 14,0 C 0,0 km/h (0 Bft)
07.08.2022 07:55 13,3 C 75 % 1027,0 hPa 0,0 l/m 0,0 km/h (0 Bft) N 0 9,0 C 13,3 C 0,0 km/h (0 Bft)
07.08.2022 07:50 12,6 C 79 % 1026,9 hPa 0,0 l/m 0,0 km/h (0 Bft) N 0 9,1 C 12,6 C 0,0 km/h (0 Bft)
07.08.2022 07:45 12,1 C 79 % 1027,0 hPa 0,0 l/m 0,0 km/h (0 Bft) N 0 8,6 C 12,1 C 0,0 km/h (0 Bft)
07.08.2022 07:40 11,6 C 82 % 1026,9 hPa 0,0 l/m 0,0 km/h (0 Bft) N 0 8,6 C 11,6 C 0,0 km/h (0 Bft)
07.08.2022 07:35 11,1 C 83 % 1026,9 hPa 0,0 l/m 0,0 km/h (0 Bft) N 0 8,3 C 11,1 C 0,0 km/h (0 Bft)
07.08.2022 07:30 10,4 C 85 % 1026,9 hPa 0,0 l/m 0,0 km/h (0 Bft) N 0 8,0 C 10,4 C 0,0 km/h (0 Bft)
07.08.2022 07:25 9,8 C 86 % 1027,0 hPa 0,0 l/m 0,0 km/h (0 Bft) N 0 7,6 C 9,8 C 0,0 km/h (0 Bft)
07.08.2022 07:20 9,3 C 88 % 1027,0 hPa 0,0 l/m 0,0 km/h (0 Bft) N 0 7,4 C 9,3 C 0,0 km/h (0 Bft)
07.08.2022 07:15 8,8 C 88 % 1026,9 hPa 0,0 l/m 0,0 km/h (0 Bft) N 0 6,9 C 8,8 C 0,0 km/h (0 Bft)
07.08.2022 07:10 8,4 C 90 % 1027,0 hPa 0,0 l/m 0,0 km/h (0 Bft) N 0 6,9 C 8,4 C 0,0 km/h (0 Bft)
07.08.2022 07:05 7,8 C 91 % 1027,0 hPa 0,0 l/m 0,0 km/h (0 Bft) N 0 6,4 C 7,8 C 0,0 km/h (0 Bft)
07.08.2022 07:00 7,3 C 92 % 1027,0 hPa 0,0 l/m 0,0 km/h (0 Bft) N 0 6,1 C 7,3 C 0,0 km/h (0 Bft)
07.08.2022 06:55 6,9 C 91 % 1027,0 hPa 0,0 l/m 0,0 km/h (0 Bft) N 0 5,5 C 6,9 C 0,0 km/h (0 Bft)
07.08.2022 06:50 6,5 C 91 % 1027,0 hPa 0,0 l/m 0,0 km/h (0 Bft) N 0 5,1 C 6,5 C 0,0 km/h (0 Bft)
07.08.2022 06:45 6,2 C 91 % 1026,9 hPa 0,0 l/m 0,0 km/h (0 Bft) N 0 4,8 C 6,2 C 0,0 km/h (0 Bft)
07.08.2022 06:40 5,9 C 91 % 1026,9 hPa 0,0 l/m 0,0 km/h (0 Bft) N 0 4,5 C 5,9 C 0,0 km/h (0 Bft)
07.08.2022 06:35 5,7 C 91 % 1026,9 hPa 0,0 l/m 0,0 km/h (0 Bft) N 0 4,3 C 5,7 C 0,0 km/h (0 Bft)
07.08.2022 06:30 5,5 C 90 % 1026,9 hPa 0,0 l/m 0,0 km/h (0 Bft) N 0 4,0 C 5,5 C 0,0 km/h (0 Bft)
07.08.2022 06:25 5,3 C 90 % 1026,9 hPa 0,0 l/m 0,0 km/h (0 Bft) N 0 3,8 C 5,3 C 0,0 km/h (0 Bft)
07.08.2022 06:20 5,2 C 89 % 1026,8 hPa 0,0 l/m 0,0 km/h (0 Bft) N 0 3,5 C 5,2 C 0,0 km/h (0 Bft)
07.08.2022 06:15 5,3 C 89 % 1026,9 hPa 0,0 l/m 0,0 km/h (0 Bft) N 0 3,6 C 5,3 C 0,0 km/h (0 Bft)
07.08.2022 06:10 5,5 C 89 % 1026,8 hPa 0,0 l/m 0,0 km/h (0 Bft) N 0 3,8 C 5,5 C 0,0 km/h (0 Bft)
07.08.2022 06:05 5,7 C 89 % 1026,9 hPa 0,0 l/m 0,0 km/h (0 Bft) N 0 4,0 C 5,7 C 0,0 km/h (0 Bft)
07.08.2022 06:00 5,8 C 89 % 1026,8 hPa 0,0 l/m 0,0 km/h (0 Bft) N 0 4,1 C 5,8 C 0,0 km/h (0 Bft)
07.08.2022 05:55 5,9 C 88 % 1026,8 hPa 0,0 l/m 0,0 km/h (0 Bft) N 0 4,1 C 5,9 C 0,0 km/h (0 Bft)
07.08.2022 05:50 6,1 C 89 % 1026,8 hPa 0,0 l/m 0,0 km/h (0 Bft) N 0 4,4 C 6,1 C 0,0 km/h (0 Bft)
07.08.2022 05:45 6,0 C 88 % 1026,8 hPa 0,0 l/m 0,0 km/h (0 Bft) N 0 4,2 C 6,0 C 0,0 km/h (0 Bft)
07.08.2022 05:40 6,1 C 88 % 1026,8 hPa 0,0 l/m 0,0 km/h (0 Bft) N 0 4,3 C 6,1 C 0,0 km/h (0 Bft)
07.08.2022 05:35 6,1 C 89 % 1026,8 hPa 0,0 l/m 1,6 km/h (1 Bft) S 180 4,4 C 6,1 C 4,8 km/h (1 Bft)
07.08.2022 05:30 6,1 C 89 % 1026,8 hPa 0,0 l/m 3,2 km/h (1 Bft) S 180 4,4 C 6,1 C 4,8 km/h (1 Bft)
07.08.2022 05:25 6,1 C 88 % 1026,8 hPa 0,0 l/m 3,2 km/h (1 Bft) S 180 4,3 C 6,1 C 8,0 km/h (2 Bft)
07.08.2022 05:20 6,0 C 88 % 1026,8 hPa 0,0 l/m 3,2 km/h (1 Bft) S 180 4,2 C 6,0 C 6,4 km/h (2 Bft)
07.08.2022 05:15 5,9 C 88 % 1026,9 hPa 0,0 l/m 0,0 km/h (0 Bft) S 180 4,1 C 5,9 C 3,2 km/h (1 Bft)
07.08.2022 05:10 5,9 C 88 % 1026,9 hPa 0,0 l/m 0,0 km/h (0 Bft) S 180 4,1 C 5,9 C 3,2 km/h (1 Bft)
07.08.2022 05:05 6,1 C 88 % 1027,0 hPa 0,0 l/m 0,0 km/h (0 Bft) N 0 4,3 C 6,1 C 0,0 km/h (0 Bft)
07.08.2022 05:00 6,1 C 88 % 1027,0 hPa 0,0 l/m 0,0 km/h (0 Bft) N 0 4,3 C 6,1 C 0,0 km/h (0 Bft)
_ Min-Zeit 06:20 16:15 18:45 - 00:15 - - 06:20 06:20 00:15
Minimum _ 5,2 C 39 % 1023,0 hPa - 0,0 km/h (0 Bft) - - 3,5 C 5,2 C 0,0 km/h (0 Bft)
_ Max-Zeit 16:00 07:00 00:30 22:00 11:45 - - 08:05 16:00 09:00
Maximum _ 22,6 C 92 % 1027,7 hPa 0,0 l/m 9,5 km/h
N (2 Bft)
- - 9,4 C 22,6 C 20,9 km/h
O-NO (4 Bft)
Durchschnitt _ 14,4 C 65 % 1025,9 hPa #0,0 l/m 3,1 km/h (1 Bft) S - 7,2 C 14,4 C 8,9 km/h (2 Bft)
Normalwerte entsprechend der Tabelle des DWD von 1961-1990 fr den Standort Annaberg-Buchholz, 650m ASL